createdAt,value
2018-11-26T00:00:09.638Z,50.30
2018-11-26T00:03:06.459Z,50.50
2018-11-26T00:06:03.245Z,50.70
2018-11-26T00:09:09.723Z,50.90
2018-11-26T00:12:08.149Z,51.20
2018-11-26T00:15:04.617Z,51.40
2018-11-26T00:18:01.196Z,51.60
2018-11-26T00:20:57.651Z,51.80
2018-11-26T00:23:54.237Z,52.00
2018-11-26T00:26:50.436Z,52.20
2018-11-26T00:29:46.718Z,52.40
2018-11-26T00:32:42.960Z,52.50
2018-11-26T00:35:39.553Z,52.50
2018-11-26T00:38:35.647Z,52.50
2018-11-26T00:41:32.088Z,52.50
2018-11-26T00:44:28.335Z,52.50
2018-11-26T00:47:24.617Z,52.50
2018-11-26T00:50:20.547Z,52.50
2018-11-26T00:53:17.014Z,52.50
2018-11-26T00:56:13.358Z,52.50
2018-11-26T00:59:09.740Z,52.60
2018-11-26T01:02:06.382Z,52.70
2018-11-26T01:05:05.547Z,52.70
2018-11-26T01:08:03.155Z,52.80
2018-11-26T01:10:59.761Z,52.70
2018-11-26T01:13:56.270Z,52.70
2018-11-26T01:16:52.776Z,52.60
2018-11-26T01:19:49.875Z,52.60
2018-11-26T01:22:48.910Z,52.50
2018-11-26T01:25:45.125Z,52.40
2018-11-26T01:28:41.365Z,52.40
2018-11-26T01:31:37.788Z,52.40
2018-11-26T01:34:34.415Z,52.50
2018-11-26T01:37:30.783Z,52.30
2018-11-26T01:40:49.945Z,52.30
2018-11-26T01:43:46.357Z,52.20
2018-11-26T01:46:43.014Z,52.20
2018-11-26T01:49:40.058Z,52.00
2018-11-26T01:52:39.615Z,51.80
2018-11-26T01:55:36.017Z,51.80
2018-11-26T01:58:32.827Z,51.90
2018-11-26T02:01:29.520Z,51.90
2018-11-26T02:04:25.847Z,51.80
2018-11-26T02:07:22.682Z,51.70
2018-11-26T02:10:22.745Z,51.60
2018-11-26T02:13:19.645Z,51.50
2018-11-26T02:16:17.362Z,51.50
2018-11-26T02:19:13.669Z,51.40
2018-11-26T02:22:10.749Z,51.20
2018-11-26T02:25:10.554Z,51.40
2018-11-26T02:28:07.437Z,51.50
2018-11-26T02:31:16.866Z,51.80
2018-11-26T02:34:11.421Z,51.90
2018-11-26T02:37:12.848Z,52.00
2018-11-26T02:40:23.410Z,52.10
2018-11-26T02:43:27.297Z,52.20
2018-11-26T02:46:32.548Z,52.30
2018-11-26T02:49:38.259Z,52.40
2018-11-26T02:52:42.896Z,52.40
2018-11-26T02:55:48.675Z,52.40
2018-11-26T02:58:54.885Z,52.40
2018-11-26T03:02:00.181Z,52.40
2018-11-26T03:05:05.348Z,52.40
2018-11-26T03:08:06.212Z,52.30
2018-11-26T03:11:14.315Z,52.20
2018-11-26T03:14:20.344Z,52.20
2018-11-26T03:17:26.557Z,52.30
2018-11-26T03:20:31.678Z,52.20
2018-11-26T03:23:34.416Z,52.20
2018-11-26T03:26:40.251Z,52.30
2018-11-26T03:29:36.650Z,52.30
2018-11-26T03:32:33.028Z,52.40
2018-11-26T03:35:29.597Z,52.40
2018-11-26T03:39:00.340Z,52.60
2018-11-26T03:41:56.620Z,52.70
2018-11-26T03:44:53.887Z,52.50
2018-11-26T03:47:50.419Z,52.50
2018-11-26T03:50:55.389Z,52.30
2018-11-26T03:53:51.928Z,52.10
2018-11-26T03:56:57.980Z,52.00
2018-11-26T03:59:54.673Z,52.00
2018-11-26T04:02:51.405Z,51.80
2018-11-26T04:05:47.878Z,51.30
2018-11-26T04:08:43.699Z,50.90
2018-11-26T04:11:48.519Z,50.20
2018-11-26T04:14:45.233Z,49.70
2018-11-26T04:17:41.999Z,49.50
2018-11-26T04:20:38.577Z,49.20
2018-11-26T04:23:37.580Z,48.80
2018-11-26T04:26:40.914Z,48.60
2018-11-26T04:32:41.543Z,48.30
2018-11-26T04:35:38.446Z,47.70
2018-11-26T04:38:39.265Z,47.50
2018-11-26T04:41:43.639Z,47.30
2018-11-26T04:44:48.616Z,47.10
2018-11-26T04:47:45.741Z,46.90
2018-11-26T04:50:57.944Z,46.50
2018-11-26T04:53:59.690Z,46.30
2018-11-26T04:57:06.353Z,46.00
2018-11-26T05:00:03.495Z,45.70
2018-11-26T05:03:00.257Z,45.60
2018-11-26T05:05:56.476Z,45.10
2018-11-26T05:19:32.844Z,44.30
2018-11-26T05:22:41.138Z,43.90
2018-11-26T05:25:59.857Z,44.00
2018-11-26T05:29:00.434Z,43.90
2018-11-26T05:31:58.118Z,43.60
2018-11-26T05:35:19.788Z,43.50
2018-11-26T05:38:18.326Z,43.50
2018-11-26T05:41:19.838Z,43.60
2018-11-26T05:44:41.328Z,43.80
2018-11-26T05:47:46.249Z,43.80
2018-11-26T05:50:35.501Z,43.20
2018-11-26T05:53:41.812Z,43.20
2018-11-26T05:57:05.818Z,43.30
2018-11-26T06:00:10.994Z,42.90
2018-11-26T06:03:09.455Z,42.70
2018-11-26T06:06:12.045Z,42.50
2018-11-26T06:09:12.583Z,42.60
2018-11-26T06:12:12.184Z,42.30
2018-11-26T06:15:12.521Z,42.40
2018-11-26T06:18:13.916Z,42.20
2018-11-26T06:21:13.178Z,41.70
2018-11-26T06:24:15.476Z,41.10
2018-11-26T06:27:15.140Z,41.00
2018-11-26T06:30:14.371Z,41.00
2018-11-26T06:33:15.830Z,41.10
2018-11-26T06:36:25.979Z,41.20
2018-11-26T06:39:26.018Z,40.90
2018-11-26T06:42:24.813Z,40.60
2018-11-26T06:45:23.353Z,40.10
2018-11-26T06:48:34.550Z,40.30
2018-11-26T06:51:29.412Z,40.60
2018-11-26T06:54:33.165Z,40.10
2018-11-26T06:57:31.306Z,39.60
2018-11-26T07:00:30.525Z,39.50
2018-11-26T07:03:28.549Z,39.30
2018-11-26T07:06:27.027Z,38.80
2018-11-26T07:09:26.611Z,38.50
2018-11-26T07:12:30.086Z,38.10
2018-11-26T07:15:26.131Z,37.30
2018-11-26T07:18:25.064Z,37.30
2018-11-26T07:21:24.367Z,37.00
2018-11-26T07:24:24.239Z,36.80
2018-11-26T07:27:21.193Z,36.80
2018-11-26T07:30:25.331Z,36.40
2018-11-26T07:33:44.295Z,36.50
2018-11-26T07:40:44.535Z,37.00
2018-11-26T07:52:29.576Z,36.90
2018-11-26T07:55:29.910Z,36.90
2018-11-26T07:58:36.507Z,36.80
2018-11-26T08:02:16.774Z,36.70
2018-11-26T08:05:20.745Z,36.80
2018-11-26T08:08:19.550Z,36.60
2018-11-26T08:11:27.772Z,36.80
2018-11-26T08:14:30.528Z,36.60
2018-11-26T08:17:28.531Z,36.80
2018-11-26T08:20:28.220Z,36.90
2018-11-26T08:23:38.894Z,37.10
2018-11-26T08:26:41.524Z,37.20
2018-11-26T08:29:42.524Z,37.30
2018-11-26T08:32:43.711Z,37.10
2018-11-26T08:35:44.796Z,37.20
2018-11-26T08:39:15.071Z,36.70
2018-11-26T08:42:30.824Z,36.60
2018-11-26T08:45:40.557Z,36.90
2018-11-26T08:48:36.477Z,36.90
2018-11-26T08:51:32.815Z,36.40
2018-11-26T08:54:46.588Z,36.30
2018-11-26T08:57:46.464Z,36.20
2018-11-26T09:00:42.766Z,35.80
2018-11-26T09:05:04.124Z,35.70
2018-11-26T09:12:36.421Z,35.60
2018-11-26T09:23:08.985Z,35.70
2018-11-26T09:26:10.602Z,35.60
2018-11-26T09:29:10.639Z,35.60
2018-11-26T09:32:08.678Z,35.50
2018-11-26T09:35:07.505Z,35.30
2018-11-26T09:38:04.722Z,35.10
2018-11-26T09:41:06.238Z,35.00
2018-11-26T09:44:07.765Z,35.10
2018-11-26T09:47:13.079Z,35.00
2018-11-26T09:50:10.042Z,34.70
2018-11-26T09:53:07.733Z,34.80
2018-11-26T09:56:06.390Z,34.80
2018-11-26T09:59:04.618Z,34.70
2018-11-26T10:02:06.240Z,34.80
2018-11-26T10:05:03.939Z,35.20
2018-11-26T10:08:09.846Z,35.30
2018-11-26T10:11:16.556Z,35.20
2018-11-26T10:14:14.919Z,35.30
2018-11-26T10:17:31.876Z,35.50
2018-11-26T10:20:33.649Z,35.50
2018-11-26T10:23:31.602Z,35.60
2018-11-26T10:26:29.401Z,35.90
2018-11-26T10:29:29.738Z,35.80
2018-11-26T10:32:26.836Z,35.90
2018-11-26T10:35:25.629Z,36.10
2018-11-26T10:38:22.770Z,36.20
2018-11-26T10:42:12.190Z,35.90
2018-11-26T10:52:50.542Z,36.10
2018-11-26T10:55:49.043Z,36.50
2018-11-26T10:58:48.489Z,37.30
2018-11-26T11:01:51.762Z,37.70
2018-11-26T11:04:52.182Z,37.80
2018-11-26T11:07:52.505Z,37.70
2018-11-26T11:10:53.747Z,38.00
2018-11-26T11:13:56.898Z,38.00
2018-11-26T11:16:54.204Z,38.10
2018-11-26T11:20:19.613Z,38.40
2018-11-26T11:23:21.829Z,38.40
2018-11-26T11:26:19.337Z,38.40
2018-11-26T11:29:18.994Z,38.40
2018-11-26T11:32:16.192Z,38.80
2018-11-26T11:35:16.123Z,39.10
2018-11-26T11:38:13.941Z,39.10
2018-11-26T11:41:16.676Z,39.60
2018-11-26T11:44:13.960Z,39.10
2018-11-26T11:47:11.152Z,39.00
2018-11-26T11:50:09.085Z,38.70
2018-11-26T11:53:11.112Z,38.70
2018-11-26T11:56:08.880Z,38.80
2018-11-26T11:59:06.848Z,38.90
2018-11-26T12:02:04.333Z,38.90
2018-11-26T12:05:01.786Z,38.90
2018-11-26T12:08:02.170Z,39.00
2018-11-26T12:10:58.811Z,39.00
2018-11-26T12:13:55.729Z,39.00
2018-11-26T12:16:52.266Z,39.00
2018-11-26T12:19:51.885Z,39.10
2018-11-26T12:22:49.813Z,38.90
2018-11-26T12:25:49.735Z,38.90
2018-11-26T12:28:47.422Z,38.90
2018-11-26T12:31:44.528Z,38.90
2018-11-26T12:34:42.052Z,39.00
2018-11-26T12:37:44.111Z,39.00
2018-11-26T12:40:37.828Z,39.00
2018-11-26T12:43:34.095Z,39.10
2018-11-26T12:46:30.861Z,38.90
2018-11-26T12:49:28.311Z,38.90
2018-11-26T12:52:26.797Z,38.90
2018-11-26T12:55:25.055Z,39.00
2018-11-26T12:58:34.523Z,39.10
2018-11-26T13:01:32.178Z,39.30
2018-11-26T13:04:28.929Z,39.20
2018-11-26T13:07:25.333Z,39.00
2018-11-26T13:10:27.145Z,39.00
2018-11-26T13:13:23.584Z,39.00
2018-11-26T13:16:20.699Z,39.10
2018-11-26T13:19:16.581Z,39.10
2018-11-26T13:22:13.181Z,39.10
2018-11-26T13:25:10.161Z,39.10
2018-11-26T13:28:18.851Z,39.00
2018-11-26T13:31:15.462Z,39.00
2018-11-26T13:34:13.286Z,39.10
2018-11-26T13:37:10.080Z,39.20
2018-11-26T13:40:07.091Z,39.30
2018-11-26T13:43:05.251Z,39.50
2018-11-26T13:46:01.791Z,39.70
2018-11-26T13:48:59.045Z,39.70
2018-11-26T13:51:55.406Z,39.80
2018-11-26T13:54:52.065Z,39.80
2018-11-26T13:57:49.121Z,39.80
2018-11-26T14:00:45.983Z,39.80
2018-11-26T14:03:45.893Z,39.90
2018-11-26T14:06:39.344Z,40.00
2018-11-26T14:09:42.513Z,40.00
2018-11-26T14:12:45.091Z,39.90
2018-11-26T14:15:44.405Z,39.90
2018-11-26T14:18:40.881Z,40.00
2018-11-26T14:21:37.154Z,40.00
2018-11-26T14:24:34.314Z,40.00
2018-11-26T14:27:30.872Z,40.10
2018-11-26T14:30:31.535Z,40.20
2018-11-26T14:33:27.865Z,40.20
2018-11-26T14:36:24.428Z,40.30
2018-11-26T14:39:21.123Z,40.40
2018-11-26T14:42:19.583Z,40.60
2018-11-26T14:45:18.314Z,40.70
2018-11-26T14:48:15.845Z,40.90
2018-11-26T14:51:13.250Z,41.00
2018-11-26T14:54:11.293Z,41.10
2018-11-26T14:57:08.773Z,41.30
2018-11-26T15:00:06.825Z,41.30
2018-11-26T15:03:03.999Z,41.20
2018-11-26T15:06:01.701Z,41.30
2018-11-26T15:08:59.599Z,41.40
2018-11-26T15:11:56.989Z,41.20
2018-11-26T15:14:54.741Z,41.30
2018-11-26T15:17:52.304Z,41.30
2018-11-26T15:20:50.133Z,41.20
2018-11-26T15:23:48.390Z,41.30
2018-11-26T15:26:45.943Z,41.50
2018-11-26T15:29:43.345Z,41.50
2018-11-26T15:32:41.815Z,41.70
2018-11-26T15:35:40.337Z,41.80
2018-11-26T15:38:38.655Z,42.00
2018-11-26T15:41:36.447Z,42.20
2018-11-26T15:44:35.135Z,42.30
2018-11-26T15:47:32.931Z,42.50
2018-11-26T15:50:31.014Z,42.70
2018-11-26T15:53:28.714Z,42.90
2018-11-26T15:56:27.941Z,42.90
2018-11-26T15:59:25.621Z,42.90
2018-11-26T16:02:24.371Z,42.90
2018-11-26T16:05:41.414Z,43.00
2018-11-26T16:08:39.031Z,42.90
2018-11-26T16:11:36.815Z,43.00
2018-11-26T16:14:35.158Z,42.90
2018-11-26T16:17:33.311Z,42.90
2018-11-26T16:20:32.117Z,42.80
2018-11-26T16:23:35.686Z,42.80
2018-11-26T16:26:33.521Z,42.60
2018-11-26T16:29:32.531Z,42.50
2018-11-26T16:32:44.052Z,42.50
2018-11-26T16:35:46.174Z,42.50
2018-11-26T16:38:43.944Z,42.50
2018-11-26T16:41:41.598Z,42.40
2018-11-26T16:44:38.904Z,42.30
2018-11-26T16:47:37.053Z,42.40
2018-11-26T16:50:42.691Z,42.50
2018-11-26T16:53:40.495Z,42.50
2018-11-26T16:56:38.408Z,42.50
2018-11-26T16:59:36.430Z,42.60
2018-11-26T17:02:34.538Z,43.10
2018-11-26T17:05:42.624Z,42.70
2018-11-26T17:08:40.490Z,42.70
2018-11-26T17:11:38.354Z,42.70
2018-11-26T17:14:35.625Z,42.90
2018-11-26T17:17:33.314Z,42.90
2018-11-26T17:20:30.733Z,42.90
2018-11-26T17:23:30.879Z,42.80
2018-11-26T17:26:28.755Z,42.70
2018-11-26T17:29:26.383Z,42.60
2018-11-26T17:32:24.190Z,42.50
2018-11-26T17:35:23.292Z,42.40
2018-11-26T17:38:24.813Z,42.50
2018-11-26T17:41:21.672Z,42.50
2018-11-26T17:44:18.615Z,42.70
2018-11-26T17:47:15.625Z,42.70
2018-11-26T17:50:20.728Z,42.70
2018-11-26T17:53:21.479Z,42.80
2018-11-26T17:56:14.941Z,42.90
2018-11-26T17:59:14.107Z,43.20
2018-11-26T18:02:10.905Z,43.20
2018-11-26T18:05:08.041Z,43.20
2018-11-26T18:08:15.268Z,43.30
2018-11-26T18:11:12.570Z,43.20
2018-11-26T18:14:09.567Z,43.30
2018-11-26T18:17:05.623Z,43.40
2018-11-26T18:20:02.026Z,43.50
2018-11-26T18:22:59.371Z,43.70
2018-11-26T18:25:55.836Z,43.70
2018-11-26T18:28:52.496Z,44.00
2018-11-26T18:31:49.034Z,43.70
2018-11-26T18:34:45.143Z,43.80
2018-11-26T18:37:41.803Z,43.70
2018-11-26T18:40:37.924Z,43.70
2018-11-26T18:43:34.100Z,43.80
2018-11-26T18:46:30.373Z,43.70
2018-11-26T18:49:27.291Z,43.80
2018-11-26T18:52:23.608Z,43.80
2018-11-26T18:55:26.703Z,43.80
2018-11-26T18:58:23.266Z,43.90
2018-11-26T19:01:19.240Z,44.00
2018-11-26T19:04:15.074Z,44.10
2018-11-26T19:07:11.729Z,44.20
2018-11-26T19:10:08.091Z,44.00
2018-11-26T19:13:24.493Z,44.10
2018-11-26T19:16:26.177Z,44.20
2018-11-26T19:19:22.642Z,44.40
2018-11-26T19:22:19.299Z,44.50
2018-11-26T19:25:25.341Z,44.50
2018-11-26T19:28:21.632Z,44.50
2018-11-26T19:31:18.388Z,44.50
2018-11-26T19:34:14.960Z,44.30
2018-11-26T19:37:11.587Z,44.30
2018-11-26T19:40:08.483Z,44.40
2018-11-26T19:43:09.110Z,44.30
2018-11-26T19:46:06.024Z,44.20
2018-11-26T19:49:03.046Z,44.10
2018-11-26T19:51:59.527Z,44.20
2018-11-26T19:54:56.046Z,44.30
2018-11-26T19:57:52.399Z,44.40
2018-11-26T20:00:48.893Z,44.60
2018-11-26T20:03:48.571Z,44.70
2018-11-26T20:06:45.070Z,44.90
2018-11-26T20:09:41.479Z,45.10
2018-11-26T20:12:37.370Z,45.10
2018-11-26T20:15:33.797Z,45.20
2018-11-26T20:18:32.309Z,45.20
2018-11-26T20:21:28.444Z,45.30
2018-11-26T20:24:24.762Z,45.30
2018-11-26T20:27:21.160Z,45.40
2018-11-26T20:30:21.478Z,45.50
2018-11-26T20:33:17.994Z,45.70
2018-11-26T20:36:17.099Z,45.80
2018-11-26T20:39:15.298Z,45.90
2018-11-26T20:42:13.415Z,45.90
2018-11-26T20:45:13.315Z,46.00
2018-11-26T20:48:12.884Z,46.00
2018-11-26T20:51:09.323Z,46.10
2018-11-26T20:54:05.748Z,46.10
2018-11-26T20:57:02.580Z,46.20
2018-11-26T21:00:01.510Z,46.40
2018-11-26T21:03:03.531Z,46.50
2018-11-26T21:06:01.498Z,46.50
2018-11-26T21:08:57.625Z,46.60
2018-11-26T21:11:54.193Z,46.60
2018-11-26T21:14:51.031Z,46.80
2018-11-26T21:17:48.164Z,46.90
2018-11-26T21:20:51.799Z,47.00
2018-11-26T21:23:48.204Z,47.10
2018-11-26T21:26:44.239Z,47.10
2018-11-26T21:29:40.683Z,47.20
2018-11-26T21:32:39.810Z,47.40
2018-11-26T21:35:36.581Z,47.50
2018-11-26T21:38:32.991Z,47.50
2018-11-26T21:41:29.157Z,47.50
2018-11-26T21:44:25.013Z,47.50
2018-11-26T21:47:21.430Z,47.60
2018-11-26T21:50:18.714Z,47.50
2018-11-26T21:53:15.799Z,47.60
2018-11-26T21:56:16.091Z,47.60
2018-11-26T21:59:12.438Z,47.50
2018-11-26T22:02:09.173Z,47.60
2018-11-26T22:05:06.231Z,47.60
2018-11-26T22:08:02.640Z,47.60
2018-11-26T22:10:58.928Z,47.70
2018-11-26T22:13:55.272Z,47.80
2018-11-26T22:16:51.648Z,47.80
2018-11-26T22:19:48.282Z,47.90
2018-11-26T22:22:44.498Z,48.10
2018-11-26T22:25:40.949Z,48.10
2018-11-26T22:28:37.083Z,48.20
2018-11-26T22:31:33.515Z,48.30
2018-11-26T22:34:29.514Z,48.40
2018-11-26T22:37:26.900Z,48.60
2018-11-26T22:40:24.479Z,48.80
2018-11-26T22:43:21.122Z,48.80
2018-11-26T22:46:17.907Z,48.80
2018-11-26T22:49:13.773Z,48.80
2018-11-26T22:52:10.215Z,48.60
2018-11-26T22:55:06.858Z,48.70
2018-11-26T22:58:02.769Z,48.70
2018-11-26T23:01:07.162Z,48.60
2018-11-26T23:04:06.181Z,48.50
2018-11-26T23:07:03.150Z,48.50
2018-11-26T23:10:02.198Z,48.50
2018-11-26T23:12:59.046Z,48.30
2018-11-26T23:15:58.697Z,48.30
2018-11-26T23:18:54.910Z,48.30
2018-11-26T23:21:56.352Z,48.40
2018-11-26T23:24:52.803Z,48.40
2018-11-26T23:27:49.217Z,48.50
2018-11-26T23:30:45.557Z,48.50
2018-11-26T23:33:41.498Z,48.50
2018-11-26T23:36:37.873Z,48.50
2018-11-26T23:39:34.182Z,48.50
2018-11-26T23:42:30.635Z,48.50
2018-11-26T23:45:30.438Z,48.50
2018-11-26T23:48:24.295Z,48.80
2018-11-26T23:51:20.692Z,48.50
2018-11-26T23:54:16.972Z,48.40
2018-11-26T23:57:13.325Z,48.30
